sensor_id;sensor_type;location;lat;lon;timestamp;pressure;altitude;pressure_sealevel;temperature;humidity
73594;BME280;64760;53.404;23.498;2023-02-28T00:01:22;101031.63;;;-6.26;88.86
73594;BME280;64760;53.404;23.498;2023-02-28T00:03:49;101032.72;;;-6.31;89.12
73594;BME280;64760;53.404;23.498;2023-02-28T00:06:16;101029.38;;;-6.13;88.89
73594;BME280;64760;53.404;23.498;2023-02-28T00:08:42;101030.78;;;-6.04;88.64
73594;BME280;64760;53.404;23.498;2023-02-28T00:11:11;101033.22;;;-6.22;88.11
73594;BME280;64760;53.404;23.498;2023-02-28T00:13:41;101019.78;;;-6.34;88.28
73594;BME280;64760;53.404;23.498;2023-02-28T00:16:11;101026.25;;;-6.21;88.56
73594;BME280;64760;53.404;23.498;2023-02-28T00:18:37;101040.13;;;-6.21;88.14
73594;BME280;64760;53.404;23.498;2023-02-28T00:21:04;101035.50;;;-6.36;87.64
73594;BME280;64760;53.404;23.498;2023-02-28T00:23:31;101038.44;;;-6.45;87.66
73594;BME280;64760;53.404;23.498;2023-02-28T00:25:58;101027.81;;;-6.62;87.68
73594;BME280;64760;53.404;23.498;2023-02-28T00:28:25;101029.59;;;-6.64;87.87
73594;BME280;64760;53.404;23.498;2023-02-28T00:30:51;101026.78;;;-6.58;87.59
73594;BME280;64760;53.404;23.498;2023-02-28T00:33:18;101037.09;;;-6.55;87.71
73594;BME280;64760;53.404;23.498;2023-02-28T00:35:44;101031.53;;;-6.46;87.85
73594;BME280;64760;53.404;23.498;2023-02-28T00:38:13;101029.78;;;-6.45;87.74
73594;BME280;64760;53.404;23.498;2023-02-28T00:40:42;101035.56;;;-6.37;87.34
73594;BME280;64760;53.404;23.498;2023-02-28T00:43:10;101027.22;;;-6.47;86.92
73594;BME280;64760;53.404;23.498;2023-02-28T00:45:37;101029.75;;;-6.69;86.48
73594;BME280;64760;53.404;23.498;2023-02-28T00:48:04;101034.88;;;-7.14;85.16
73594;BME280;64760;53.404;23.498;2023-02-28T00:50:31;101039.25;;;-7.65;84.23
73594;BME280;64760;53.404;23.498;2023-02-28T00:52:58;101025.94;;;-8.10;84.29
73594;BME280;64760;53.404;23.498;2023-02-28T00:55:24;101030.66;;;-8.23;84.52
73594;BME280;64760;53.404;23.498;2023-02-28T00:57:51;101039.19;;;-8.18;84.99
73594;BME280;64760;53.404;23.498;2023-02-28T01:00:17;101025.69;;;-8.02;86.17
73594;BME280;64760;53.404;23.498;2023-02-28T01:02:43;101027.75;;;-7.84;86.16
73594;BME280;64760;53.404;23.498;2023-02-28T01:05:10;101037.53;;;-7.92;85.64
73594;BME280;64760;53.404;23.498;2023-02-28T01:07:36;101021.47;;;-8.05;85.58
73594;BME280;64760;53.404;23.498;2023-02-28T01:10:04;101016.66;;;-8.19;85.42
73594;BME280;64760;53.404;23.498;2023-02-28T01:12:31;101016.81;;;-8.23;85.47
73594;BME280;64760;53.404;23.498;2023-02-28T01:14:59;101019.78;;;-8.34;85.06
73594;BME280;64760;53.404;23.498;2023-02-28T01:17:25;101026.22;;;-8.47;84.26
73594;BME280;64760;53.404;23.498;2023-02-28T01:19:54;101016.41;;;-8.67;83.68
73594;BME280;64760;53.404;23.498;2023-02-28T01:22:21;101015.25;;;-8.86;83.28
73594;BME280;64760;53.404;23.498;2023-02-28T01:24:47;101025.03;;;-8.95;83.56
73594;BME280;64760;53.404;23.498;2023-02-28T01:27:14;101020.88;;;-9.01;83.65
73594;BME280;64760;53.404;23.498;2023-02-28T01:29:40;101016.47;;;-8.99;83.84
73594;BME280;64760;53.404;23.498;2023-02-28T01:32:06;101010.53;;;-9.02;84.51
73594;BME280;64760;53.404;23.498;2023-02-28T01:34:35;101011.00;;;-8.88;86.37
73594;BME280;64760;53.404;23.498;2023-02-28T01:37:03;101012.88;;;-8.93;85.41
73594;BME280;64760;53.404;23.498;2023-02-28T01:39:30;101017.34;;;-8.98;84.41
73594;BME280;64760;53.404;23.498;2023-02-28T01:41:56;101028.50;;;-8.95;84.27
73594;BME280;64760;53.404;23.498;2023-02-28T01:44:57;101023.28;;;-8.95;84.11
73594;BME280;64760;53.404;23.498;2023-02-28T01:47:38;101017.44;;;-9.01;84.40
73594;BME280;64760;53.404;23.498;2023-02-28T01:50:10;101009.16;;;-8.85;84.96
73594;BME280;64760;53.404;23.498;2023-02-28T01:52:38;101000.03;;;-8.69;85.13
73594;BME280;64760;53.404;23.498;2023-02-28T01:55:07;101015.31;;;-8.58;84.92
73594;BME280;64760;53.404;23.498;2023-02-28T01:57:40;101006.50;;;-8.52;85.96
73594;BME280;64760;53.404;23.498;2023-02-28T02:00:11;101001.59;;;-8.63;84.88
73594;BME280;64760;53.404;23.498;2023-02-28T02:02:42;101002.81;;;-8.75;84.27
73594;BME280;64760;53.404;23.498;2023-02-28T02:05:14;100993.63;;;-8.86;83.79
73594;BME280;64760;53.404;23.498;2023-02-28T02:07:43;101007.34;;;-8.81;83.90
73594;BME280;64760;53.404;23.498;2023-02-28T02:10:21;101006.16;;;-8.71;83.86
73594;BME280;64760;53.404;23.498;2023-02-28T02:18:46;101006.94;;;-8.98;83.27
73594;BME280;64760;53.404;23.498;2023-02-28T02:21:41;101023.34;;;-8.96;83.09
73594;BME280;64760;53.404;23.498;2023-02-28T02:27:03;101018.66;;;-8.27;85.87
73594;BME280;64760;53.404;23.498;2023-02-28T02:37:40;101017.91;;;-8.02;85.26
73594;BME280;64760;53.404;23.498;2023-02-28T02:40:14;101013.66;;;-8.05;85.19
73594;BME280;64760;53.404;23.498;2023-02-28T02:43:07;101022.53;;;-7.84;86.14
73594;BME280;64760;53.404;23.498;2023-02-28T02:48:45;101015.44;;;-8.33;83.80
73594;BME280;64760;53.404;23.498;2023-02-28T02:51:16;101002.88;;;-8.76;83.28
73594;BME280;64760;53.404;23.498;2023-02-28T02:54:07;101024.06;;;-8.91;83.26
73594;BME280;64760;53.404;23.498;2023-02-28T02:56:36;101023.69;;;-9.09;82.58
73594;BME280;64760;53.404;23.498;2023-02-28T02:59:08;101031.50;;;-9.10;83.92
73594;BME280;64760;53.404;23.498;2023-02-28T03:01:37;101023.91;;;-9.16;83.41
73594;BME280;64760;53.404;23.498;2023-02-28T03:04:11;101023.13;;;-9.20;83.00
73594;BME280;64760;53.404;23.498;2023-02-28T03:06:38;101029.09;;;-9.16;83.33
73594;BME280;64760;53.404;23.498;2023-02-28T03:09:04;101039.94;;;-9.02;84.25
73594;BME280;64760;53.404;23.498;2023-02-28T03:11:32;101038.66;;;-8.87;84.36
73594;BME280;64760;53.404;23.498;2023-02-28T03:27:29;101032.53;;;-8.56;85.26
73594;BME280;64760;53.404;23.498;2023-02-28T03:30:02;101033.19;;;-8.77;84.65
73594;BME280;64760;53.404;23.498;2023-02-28T03:32:40;101038.44;;;-9.11;83.34
73594;BME280;64760;53.404;23.498;2023-02-28T03:35:19;101046.84;;;-9.33;83.00
73594;BME280;64760;53.404;23.498;2023-02-28T03:37:50;101035.91;;;-9.46;83.02
73594;BME280;64760;53.404;23.498;2023-02-28T03:40:24;101038.50;;;-9.12;84.90
73594;BME280;64760;53.404;23.498;2023-02-28T03:42:56;101049.53;;;-8.73;86.10
73594;BME280;64760;53.404;23.498;2023-02-28T03:45:27;101043.72;;;-8.52;86.77
73594;BME280;64760;53.404;23.498;2023-02-28T03:48:02;101028.66;;;-8.41;86.82
73594;BME280;64760;53.404;23.498;2023-02-28T03:50:37;101035.59;;;-8.14;87.03
73594;BME280;64760;53.404;23.498;2023-02-28T03:53:29;101043.72;;;-7.96;87.33
73594;BME280;64760;53.404;23.498;2023-02-28T03:56:05;101041.31;;;-8.02;86.81
73594;BME280;64760;53.404;23.498;2023-02-28T03:58:38;101042.81;;;-8.23;85.55
73594;BME280;64760;53.404;23.498;2023-02-28T04:01:14;101048.94;;;-8.52;85.19
73594;BME280;64760;53.404;23.498;2023-02-28T04:03:41;101055.97;;;-8.86;83.44
73594;BME280;64760;53.404;23.498;2023-02-28T04:06:14;101054.22;;;-9.18;83.27
73594;BME280;64760;53.404;23.498;2023-02-28T04:08:42;101054.25;;;-9.52;82.69
73594;BME280;64760;53.404;23.498;2023-02-28T04:11:18;101057.38;;;-9.73;82.09
73594;BME280;64760;53.404;23.498;2023-02-28T04:13:45;101062.06;;;-9.89;81.85
73594;BME280;64760;53.404;23.498;2023-02-28T04:16:12;101059.75;;;-10.00;82.61
73594;BME280;64760;53.404;23.498;2023-02-28T04:18:39;101057.25;;;-10.04;82.66
73594;BME280;64760;53.404;23.498;2023-02-28T04:21:06;101063.13;;;-9.98;83.18
73594;BME280;64760;53.404;23.498;2023-02-28T04:23:33;101054.31;;;-9.90;83.53
73594;BME280;64760;53.404;23.498;2023-02-28T04:25:59;101052.66;;;-9.93;83.68
73594;BME280;64760;53.404;23.498;2023-02-28T04:28:25;101060.22;;;-9.84;83.31
73594;BME280;64760;53.404;23.498;2023-02-28T04:31:01;101054.00;;;-9.77;84.79
73594;BME280;64760;53.404;23.498;2023-02-28T04:33:28;101051.44;;;-9.78;83.36
73594;BME280;64760;53.404;23.498;2023-02-28T04:36:07;101038.84;;;-9.93;82.68
73594;BME280;64760;53.404;23.498;2023-02-28T04:38:36;101060.63;;;-10.01;82.54
73594;BME280;64760;53.404;23.498;2023-02-28T04:41:03;101046.16;;;-10.11;81.94
73594;BME280;64760;53.404;23.498;2023-02-28T04:43:30;101049.66;;;-10.13;82.17
73594;BME280;64760;53.404;23.498;2023-02-28T04:45:59;101056.38;;;-10.05;82.80
73594;BME280;64760;53.404;23.498;2023-02-28T04:48:31;101042.75;;;-10.13;82.55
73594;BME280;64760;53.404;23.498;2023-02-28T04:51:06;101047.75;;;-10.05;82.84
73594;BME280;64760;53.404;23.498;2023-02-28T04:53:34;101052.66;;;-9.93;83.13
73594;BME280;64760;53.404;23.498;2023-02-28T04:56:01;101049.09;;;-9.87;83.75
73594;BME280;64760;53.404;23.498;2023-02-28T04:58:27;101056.09;;;-9.92;83.22
73594;BME280;64760;53.404;23.498;2023-02-28T05:01:01;101054.50;;;-9.98;82.96
73594;BME280;64760;53.404;23.498;2023-02-28T05:03:28;101045.16;;;-10.05;82.58
73594;BME280;64760;53.404;23.498;2023-02-28T05:05:55;101053.13;;;-10.13;82.44
73594;BME280;64760;53.404;23.498;2023-02-28T05:08:21;101049.03;;;-10.21;81.90
73594;BME280;64760;53.404;23.498;2023-02-28T05:10:47;101053.28;;;-10.19;83.96
73594;BME280;64760;53.404;23.498;2023-02-28T05:13:13;101062.16;;;-9.93;85.27
73594;BME280;64760;53.404;23.498;2023-02-28T05:15:40;101057.19;;;-9.32;86.67
73594;BME280;64760;53.404;23.498;2023-02-28T05:18:08;101058.13;;;-9.02;87.23
73594;BME280;64760;53.404;23.498;2023-02-28T05:20:34;101047.81;;;-9.05;87.34
73594;BME280;64760;53.404;23.498;2023-02-28T05:23:01;101050.63;;;-9.13;86.33
73594;BME280;64760;53.404;23.498;2023-02-28T05:25:28;101048.38;;;-9.26;84.54
73594;BME280;64760;53.404;23.498;2023-02-28T05:27:54;101051.28;;;-9.37;83.80
73594;BME280;64760;53.404;23.498;2023-02-28T05:30:21;101034.47;;;-9.56;82.79
73594;BME280;64760;53.404;23.498;2023-02-28T05:32:50;101044.00;;;-9.58;82.89
73594;BME280;64760;53.404;23.498;2023-02-28T05:35:17;101052.00;;;-9.66;82.55
73594;BME280;64760;53.404;23.498;2023-02-28T05:37:43;101046.97;;;-9.72;82.66
73594;BME280;64760;53.404;23.498;2023-02-28T05:40:10;101041.53;;;-9.63;84.13
73594;BME280;64760;53.404;23.498;2023-02-28T05:42:37;101052.13;;;-9.36;86.95
73594;BME280;64760;53.404;23.498;2023-02-28T05:45:04;101052.00;;;-9.32;85.82
73594;BME280;64760;53.404;23.498;2023-02-28T05:47:31;101039.94;;;-9.34;84.58
73594;BME280;64760;53.404;23.498;2023-02-28T05:49:58;101050.31;;;-9.33;84.33
73594;BME280;64760;53.404;23.498;2023-02-28T05:52:26;101064.94;;;-9.30;83.36
73594;BME280;64760;53.404;23.498;2023-02-28T05:54:56;101057.97;;;-9.28;83.13
73594;BME280;64760;53.404;23.498;2023-02-28T05:57:23;101063.81;;;-9.20;83.51
73594;BME280;64760;53.404;23.498;2023-02-28T05:59:50;101059.84;;;-9.01;84.16
73594;BME280;64760;53.404;23.498;2023-02-28T06:02:16;101071.84;;;-8.66;85.12
73594;BME280;64760;53.404;23.498;2023-02-28T06:04:44;101082.13;;;-8.32;85.85
73594;BME280;64760;53.404;23.498;2023-02-28T06:07:10;101071.25;;;-8.17;85.48
73594;BME280;64760;53.404;23.498;2023-02-28T06:09:38;101069.44;;;-7.87;85.40
73594;BME280;64760;53.404;23.498;2023-02-28T06:12:06;101068.16;;;-7.74;85.60
73594;BME280;64760;53.404;23.498;2023-02-28T06:14:34;101063.66;;;-7.69;85.10
73594;BME280;64760;53.404;23.498;2023-02-28T06:17:00;101066.47;;;-7.49;85.57
73594;BME280;64760;53.404;23.498;2023-02-28T06:19:27;101072.50;;;-7.22;86.12
73594;BME280;64760;53.404;23.498;2023-02-28T06:21:59;101070.13;;;-7.03;86.00
73594;BME280;64760;53.404;23.498;2023-02-28T06:24:26;101061.88;;;-6.91;85.89
73594;BME280;64760;53.404;23.498;2023-02-28T06:26:56;101074.03;;;-6.67;85.75
73594;BME280;64760;53.404;23.498;2023-02-28T06:29:25;101074.34;;;-6.76;85.21
73594;BME280;64760;53.404;23.498;2023-02-28T06:31:51;101076.56;;;-6.89;84.98
73594;BME280;64760;53.404;23.498;2023-02-28T06:34:17;101080.81;;;-6.86;84.41
73594;BME280;64760;53.404;23.498;2023-02-28T06:36:44;101066.63;;;-7.02;84.59
73594;BME280;64760;53.404;23.498;2023-02-28T06:39:10;101073.31;;;-6.95;84.55
73594;BME280;64760;53.404;23.498;2023-02-28T06:41:36;101082.13;;;-6.75;85.01
73594;BME280;64760;53.404;23.498;2023-02-28T06:44:05;101081.25;;;-6.50;85.21
73594;BME280;64760;53.404;23.498;2023-02-28T06:46:34;101074.94;;;-6.45;85.26
73594;BME280;64760;53.404;23.498;2023-02-28T06:49:01;101074.78;;;-6.40;86.37
73594;BME280;64760;53.404;23.498;2023-02-28T06:51:29;101064.84;;;-6.07;86.71
73594;BME280;64760;53.404;23.498;2023-02-28T06:53:55;101080.28;;;-5.81;86.53
73594;BME280;64760;53.404;23.498;2023-02-28T06:56:22;101082.31;;;-5.66;86.30
73594;BME280;64760;53.404;23.498;2023-02-28T06:58:50;101073.63;;;-5.66;86.10
73594;BME280;64760;53.404;23.498;2023-02-28T07:01:17;101070.22;;;-5.47;86.24
73594;BME280;64760;53.404;23.498;2023-02-28T07:03:46;101073.50;;;-5.01;86.12
73594;BME280;64760;53.404;23.498;2023-02-28T07:06:12;101076.06;;;-4.80;85.21
73594;BME280;64760;53.404;23.498;2023-02-28T07:08:39;101071.28;;;-4.70;84.66
73594;BME280;64760;53.404;23.498;2023-02-28T07:11:10;101076.00;;;-4.78;85.13
73594;BME280;64760;53.404;23.498;2023-02-28T07:13:36;101067.63;;;-5.06;85.19
73594;BME280;64760;53.404;23.498;2023-02-28T07:16:05;101062.47;;;-5.08;86.06
73594;BME280;64760;53.404;23.498;2023-02-28T07:18:32;101065.03;;;-4.86;86.04
73594;BME280;64760;53.404;23.498;2023-02-28T07:21:04;101061.59;;;-4.68;85.63
73594;BME280;64760;53.404;23.498;2023-02-28T07:23:31;101066.50;;;-4.42;84.93
73594;BME280;64760;53.404;23.498;2023-02-28T07:25:57;101055.13;;;-4.41;84.81
73594;BME280;64760;53.404;23.498;2023-02-28T07:28:24;101062.19;;;-4.43;85.17
73594;BME280;64760;53.404;23.498;2023-02-28T07:30:51;101061.91;;;-4.37;85.46
73594;BME280;64760;53.404;23.498;2023-02-28T07:33:20;101071.25;;;-4.12;85.27
73594;BME280;64760;53.404;23.498;2023-02-28T07:35:46;101055.88;;;-4.01;84.90
73594;BME280;64760;53.404;23.498;2023-02-28T07:38:13;101051.44;;;-3.99;85.09
73594;BME280;64760;53.404;23.498;2023-02-28T07:40:39;101046.16;;;-3.81;85.29
73594;BME280;64760;53.404;23.498;2023-02-28T07:43:06;101051.94;;;-3.74;84.66
73594;BME280;64760;53.404;23.498;2023-02-28T07:45:32;101055.63;;;-3.42;83.52
73594;BME280;64760;53.404;23.498;2023-02-28T07:48:00;101058.81;;;-3.36;83.92
73594;BME280;64760;53.404;23.498;2023-02-28T07:50:27;101056.81;;;-3.30;83.67
73594;BME280;64760;53.404;23.498;2023-02-28T07:52:59;101049.19;;;-3.35;83.58
73594;BME280;64760;53.404;23.498;2023-02-28T07:55:25;101040.16;;;-3.29;83.50
73594;BME280;64760;53.404;23.498;2023-02-28T07:57:53;101037.91;;;-3.20;83.52
73594;BME280;64760;53.404;23.498;2023-02-28T08:00:20;101025.78;;;-3.22;82.96
73594;BME280;64760;53.404;23.498;2023-02-28T08:02:46;101034.44;;;-3.20;82.93
73594;BME280;64760;53.404;23.498;2023-02-28T08:05:12;101021.34;;;-3.03;82.32
73594;BME280;64760;53.404;23.498;2023-02-28T08:07:39;101020.69;;;-2.91;82.47
73594;BME280;64760;53.404;23.498;2023-02-28T08:10:06;101025.25;;;-2.95;83.01
73594;BME280;64760;53.404;23.498;2023-02-28T08:12:32;101022.38;;;-2.90;82.97
73594;BME280;64760;53.404;23.498;2023-02-28T08:14:59;101020.16;;;-2.98;82.69
73594;BME280;64760;53.404;23.498;2023-02-28T08:17:25;101037.88;;;-2.86;82.69
73594;BME280;64760;53.404;23.498;2023-02-28T08:19:51;101024.72;;;-2.68;83.08
73594;BME280;64760;53.404;23.498;2023-02-28T08:22:18;101020.25;;;-2.66;82.89
73594;BME280;64760;53.404;23.498;2023-02-28T08:24:45;101027.13;;;-2.64;82.61
73594;BME280;64760;53.404;23.498;2023-02-28T08:27:11;101046.81;;;-2.40;82.38
73594;BME280;64760;53.404;23.498;2023-02-28T08:29:39;101040.06;;;-2.28;81.26
73594;BME280;64760;53.404;23.498;2023-02-28T08:32:07;101055.16;;;-2.00;82.09
73594;BME280;64760;53.404;23.498;2023-02-28T08:34:34;101051.59;;;-1.83;81.05
73594;BME280;64760;53.404;23.498;2023-02-28T08:37:01;101054.97;;;-1.81;79.65
73594;BME280;64760;53.404;23.498;2023-02-28T08:39:27;101044.53;;;-1.67;78.85
73594;BME280;64760;53.404;23.498;2023-02-28T08:41:53;101052.13;;;-1.63;79.12
73594;BME280;64760;53.404;23.498;2023-02-28T08:44:20;101068.34;;;-1.70;79.64
73594;BME280;64760;53.404;23.498;2023-02-28T08:46:46;101061.25;;;-1.68;80.40
73594;BME280;64760;53.404;23.498;2023-02-28T08:49:12;101065.38;;;-1.49;79.33
73594;BME280;64760;53.404;23.498;2023-02-28T08:51:39;101067.13;;;-1.33;78.45
73594;BME280;64760;53.404;23.498;2023-02-28T08:54:05;101056.63;;;-1.19;78.46
73594;BME280;64760;53.404;23.498;2023-02-28T08:56:31;101054.63;;;-1.30;79.36
73594;BME280;64760;53.404;23.498;2023-02-28T08:58:58;101060.03;;;-1.17;77.91
73594;BME280;64760;53.404;23.498;2023-02-28T09:01:27;101052.34;;;-1.06;78.40
73594;BME280;64760;53.404;23.498;2023-02-28T09:03:54;101058.94;;;-0.99;78.40
73594;BME280;64760;53.404;23.498;2023-02-28T09:06:24;101063.00;;;-0.79;76.59
73594;BME280;64760;53.404;23.498;2023-02-28T09:08:52;101063.03;;;-0.65;74.19
73594;BME280;64760;53.404;23.498;2023-02-28T09:11:20;101058.16;;;-0.57;74.02
73594;BME280;64760;53.404;23.498;2023-02-28T09:13:46;101050.84;;;-0.52;72.98
73594;BME280;64760;53.404;23.498;2023-02-28T09:16:15;101066.25;;;-0.46;71.94
73594;BME280;64760;53.404;23.498;2023-02-28T09:18:43;101051.13;;;-0.57;72.77
73594;BME280;64760;53.404;23.498;2023-02-28T09:21:15;101049.41;;;-0.58;72.15
73594;BME280;64760;53.404;23.498;2023-02-28T09:23:43;101059.19;;;-0.60;72.06
73594;BME280;64760;53.404;23.498;2023-02-28T09:26:23;101046.59;;;-0.55;71.56
73594;BME280;64760;53.404;23.498;2023-02-28T09:28:50;101063.91;;;-0.36;71.77
73594;BME280;64760;53.404;23.498;2023-02-28T09:31:20;101050.25;;;-0.43;73.22
73594;BME280;64760;53.404;23.498;2023-02-28T09:33:51;101051.28;;;-0.31;71.08
73594;BME280;64760;53.404;23.498;2023-02-28T09:36:18;101057.19;;;-0.28;70.98
73594;BME280;64760;53.404;23.498;2023-02-28T09:38:44;101045.84;;;-0.28;70.10
73594;BME280;64760;53.404;23.498;2023-02-28T09:41:37;101040.56;;;-0.42;72.11
73594;BME280;64760;53.404;23.498;2023-02-28T09:44:10;101031.72;;;-0.13;70.74
73594;BME280;64760;53.404;23.498;2023-02-28T09:46:40;101033.00;;;-0.06;70.78
73594;BME280;64760;53.404;23.498;2023-02-28T09:49:14;101033.00;;;-0.06;69.44
73594;BME280;64760;53.404;23.498;2023-02-28T09:51:45;101037.28;;;0.09;69.87
73594;BME280;64760;53.404;23.498;2023-02-28T09:54:21;101032.22;;;0.06;69.65
73594;BME280;64760;53.404;23.498;2023-02-28T09:57:00;101036.41;;;-0.18;69.45
73594;BME280;64760;53.404;23.498;2023-02-28T10:02:28;101022.88;;;0.15;68.73
73594;BME280;64760;53.404;23.498;2023-02-28T10:07:53;101019.16;;;0.31;67.47
73594;BME280;64760;53.404;23.498;2023-02-28T10:15:56;101016.31;;;0.34;66.74
73594;BME280;64760;53.404;23.498;2023-02-28T10:18:30;101019.03;;;0.33;66.39
73594;BME280;64760;53.404;23.498;2023-02-28T10:21:00;100997.47;;;0.14;66.30
73594;BME280;64760;53.404;23.498;2023-02-28T10:23:35;100999.84;;;0.31;65.48
73594;BME280;64760;53.404;23.498;2023-02-28T10:26:21;101004.84;;;0.35;65.34
73594;BME280;64760;53.404;23.498;2023-02-28T10:28:52;100999.69;;;0.46;66.25
73594;BME280;64760;53.404;23.498;2023-02-28T10:31:23;100995.72;;;0.27;65.39
73594;BME280;64760;53.404;23.498;2023-02-28T10:33:53;100995.91;;;0.51;65.14
73594;BME280;64760;53.404;23.498;2023-02-28T10:36:20;100985.56;;;0.60;65.43
73594;BME280;64760;53.404;23.498;2023-02-28T10:38:47;100990.84;;;0.60;65.10
73594;BME280;64760;53.404;23.498;2023-02-28T10:41:26;100987.31;;;0.74;64.39
73594;BME280;64760;53.404;23.498;2023-02-28T10:44:17;100973.19;;;0.48;66.21
73594;BME280;64760;53.404;23.498;2023-02-28T10:46:45;100976.41;;;0.66;65.51
73594;BME280;64760;53.404;23.498;2023-02-28T10:49:26;100962.69;;;0.61;65.04
73594;BME280;64760;53.404;23.498;2023-02-28T10:51:55;100977.69;;;0.73;64.95
73594;BME280;64760;53.404;23.498;2023-02-28T10:54:33;100968.53;;;0.91;65.15
73594;BME280;64760;53.404;23.498;2023-02-28T10:57:07;100973.50;;;0.96;64.52
73594;BME280;64760;53.404;23.498;2023-02-28T10:59:35;100968.75;;;1.13;64.39
73594;BME280;64760;53.404;23.498;2023-02-28T11:02:08;100966.41;;;1.34;61.61
73594;BME280;64760;53.404;23.498;2023-02-28T11:04:48;100968.91;;;1.35;59.87
73594;BME280;64760;53.404;23.498;2023-02-28T11:07:18;100984.59;;;1.26;61.15
73594;BME280;64760;53.404;23.498;2023-02-28T11:09:48;100957.88;;;1.05;61.66
73594;BME280;64760;53.404;23.498;2023-02-28T11:15:00;100962.19;;;1.19;61.51
73594;BME280;64760;53.404;23.498;2023-02-28T11:17:30;100968.41;;;1.05;61.71
73594;BME280;64760;53.404;23.498;2023-02-28T11:20:04;100967.56;;;1.30;61.45
73594;BME280;64760;53.404;23.498;2023-02-28T11:22:37;100966.41;;;1.34;60.84
73594;BME280;64760;53.404;23.498;2023-02-28T11:25:29;100964.47;;;1.49;60.04
73594;BME280;64760;53.404;23.498;2023-02-28T11:28:00;100962.03;;;1.58;59.04
73594;BME280;64760;53.404;23.498;2023-02-28T11:30:41;100950.22;;;1.51;59.50
73594;BME280;64760;53.404;23.498;2023-02-28T11:33:40;100962.78;;;1.48;59.98
73594;BME280;64760;53.404;23.498;2023-02-28T11:36:31;100936.81;;;1.41;60.31
73594;BME280;64760;53.404;23.498;2023-02-28T11:39:08;100935.19;;;1.52;60.32
73594;BME280;64760;53.404;23.498;2023-02-28T11:47:32;100926.56;;;1.73;57.91
73594;BME280;64760;53.404;23.498;2023-02-28T11:52:55;100935.72;;;1.44;58.77
73594;BME280;64760;53.404;23.498;2023-02-28T12:04:10;100905.03;;;1.67;58.95
73594;BME280;64760;53.404;23.498;2023-02-28T12:20:30;100885.56;;;1.68;58.53
73594;BME280;64760;53.404;23.498;2023-02-28T12:23:19;100881.97;;;1.69;57.65
73594;BME280;64760;53.404;23.498;2023-02-28T12:28:43;100872.91;;;1.84;55.99
73594;BME280;64760;53.404;23.498;2023-02-28T12:31:26;100867.97;;;1.79;55.96
73594;BME280;64760;53.404;23.498;2023-02-28T12:34:00;100858.09;;;1.70;56.78
73594;BME280;64760;53.404;23.498;2023-02-28T12:36:29;100870.59;;;1.79;55.83
73594;BME280;64760;53.404;23.498;2023-02-28T12:39:02;100861.13;;;1.77;54.96
73594;BME280;64760;53.404;23.498;2023-02-28T12:41:44;100854.88;;;1.78;55.89
73594;BME280;64760;53.404;23.498;2023-02-28T12:44:17;100839.44;;;1.96;55.38
73594;BME280;64760;53.404;23.498;2023-02-28T12:46:58;100849.16;;;1.95;53.35
73594;BME280;64760;53.404;23.498;2023-02-28T12:49:45;100858.13;;;2.05;54.38
73594;BME280;64760;53.404;23.498;2023-02-28T12:52:21;100848.38;;;2.06;52.53
73594;BME280;64760;53.404;23.498;2023-02-28T12:55:00;100846.31;;;1.98;54.04
73594;BME280;64760;53.404;23.498;2023-02-28T13:00:10;100846.84;;;2.14;52.87
73594;BME280;64760;53.404;23.498;2023-02-28T13:11:03;100822.34;;;2.23;53.00
73594;BME280;64760;53.404;23.498;2023-02-28T13:13:30;100837.50;;;2.21;52.65
73594;BME280;64760;53.404;23.498;2023-02-28T13:16:04;100836.47;;;2.00;52.51
73594;BME280;64760;53.404;23.498;2023-02-28T13:18:56;100840.66;;;2.26;51.34
73594;BME280;64760;53.404;23.498;2023-02-28T13:21:29;100834.38;;;2.27;51.94
73594;BME280;64760;53.404;23.498;2023-02-28T13:24:02;100827.88;;;2.31;52.60
73594;BME280;64760;53.404;23.498;2023-02-28T13:34:41;100822.34;;;2.23;53.06
73594;BME280;64760;53.404;23.498;2023-02-28T13:39:49;100817.28;;;2.09;50.65
73594;BME280;64760;53.404;23.498;2023-02-28T13:50:30;100800.41;;;1.99;52.45
73594;BME280;64760;53.404;23.498;2023-02-28T14:01:31;100785.34;;;1.88;52.15
73594;BME280;64760;53.404;23.498;2023-02-28T14:04:38;100791.13;;;1.82;53.14
73594;BME280;64760;53.404;23.498;2023-02-28T14:07:17;100796.78;;;1.89;52.93
73594;BME280;64760;53.404;23.498;2023-02-28T14:09:52;100786.44;;;1.86;53.51
73594;BME280;64760;53.404;23.498;2023-02-28T14:18:41;100774.44;;;1.93;55.04
73594;BME280;64760;53.404;23.498;2023-02-28T14:21:19;100773.13;;;1.99;54.25
73594;BME280;64760;53.404;23.498;2023-02-28T14:30:29;100773.91;;;1.77;53.99
73594;BME280;64760;53.404;23.498;2023-02-28T14:36:20;100776.88;;;1.72;54.08
73594;BME280;64760;53.404;23.498;2023-02-28T14:38:56;100758.72;;;1.68;54.08
73594;BME280;64760;53.404;23.498;2023-02-28T14:41:32;100762.72;;;1.73;54.47
73594;BME280;64760;53.404;23.498;2023-02-28T14:44:22;100772.44;;;1.73;54.90
73594;BME280;64760;53.404;23.498;2023-02-28T14:46:50;100784.06;;;1.59;54.26
73594;BME280;64760;53.404;23.498;2023-02-28T14:49:22;100776.13;;;1.59;54.65
73594;BME280;64760;53.404;23.498;2023-02-28T14:52:02;100780.84;;;1.67;55.09
73594;BME280;64760;53.404;23.498;2023-02-28T14:54:29;100782.84;;;1.63;55.43
73594;BME280;64760;53.404;23.498;2023-02-28T14:56:58;100767.19;;;1.84;56.68
73594;BME280;64760;53.404;23.498;2023-02-28T14:59:28;100777.94;;;1.94;54.83
73594;BME280;64760;53.404;23.498;2023-02-28T15:02:19;100772.47;;;1.84;55.07
73594;BME280;64760;53.404;23.498;2023-02-28T15:04:54;100767.16;;;1.73;55.48
73594;BME280;64760;53.404;23.498;2023-02-28T15:07:21;100764.84;;;1.68;55.94
73594;BME280;64760;53.404;23.498;2023-02-28T15:10:20;100764.34;;;1.63;56.48
73594;BME280;64760;53.404;23.498;2023-02-28T15:13:10;100765.09;;;1.65;56.68
73594;BME280;64760;53.404;23.498;2023-02-28T15:18:56;100765.91;;;1.55;56.89
73594;BME280;64760;53.404;23.498;2023-02-28T15:21:27;100765.28;;;1.51;57.00